sensor_id;sensor_type;location;lat;lon;timestamp;pressure;altitude;pressure_sealevel;temperature;humidity
67109;BME280;54027;50.786;7.058;2023-03-18T00:01:04;100469.69;;;10.38;96.50
67109;BME280;54027;50.786;7.058;2023-03-18T00:03:32;100477.44;;;10.36;97.00
67109;BME280;54027;50.786;7.058;2023-03-18T00:06:06;100478.28;;;10.37;97.42
67109;BME280;54027;50.786;7.058;2023-03-18T00:08:33;100471.41;;;10.37;97.18
67109;BME280;54027;50.786;7.058;2023-03-18T00:10:58;100484.28;;;10.39;97.01
67109;BME280;54027;50.786;7.058;2023-03-18T00:13:24;100484.25;;;10.42;97.26
67109;BME280;54027;50.786;7.058;2023-03-18T00:15:50;100485.97;;;10.44;97.41
67109;BME280;54027;50.786;7.058;2023-03-18T00:18:16;100485.03;;;10.48;97.39
67109;BME280;54027;50.786;7.058;2023-03-18T00:20:43;100480.69;;;10.52;97.01
67109;BME280;54027;50.786;7.058;2023-03-18T00:23:09;100482.41;;;10.53;97.29
67109;BME280;54027;50.786;7.058;2023-03-18T00:25:36;100484.09;;;10.54;96.88
67109;BME280;54027;50.786;7.058;2023-03-18T00:28:05;100479.78;;;10.54;96.97
67109;BME280;54027;50.786;7.058;2023-03-18T00:30:32;100470.31;;;10.55;97.29
67109;BME280;54027;50.786;7.058;2023-03-18T00:32:57;100463.41;;;10.54;97.15
67109;BME280;54027;50.786;7.058;2023-03-18T00:35:24;100471.16;;;10.55;97.43
67109;BME280;54027;50.786;7.058;2023-03-18T00:37:52;100467.75;;;10.53;97.97
67109;BME280;54027;50.786;7.058;2023-03-18T00:40:19;100477.19;;;10.56;98.11
67109;BME280;54027;50.786;7.058;2023-03-18T00:42:51;100467.69;;;10.59;97.92
67109;BME280;54027;50.786;7.058;2023-03-18T00:45:22;100478.84;;;10.60;98.16
67109;BME280;54027;50.786;7.058;2023-03-18T00:47:48;100485.78;;;10.59;97.45
67109;BME280;54027;50.786;7.058;2023-03-18T00:50:15;100503.88;;;10.59;98.23
67109;BME280;54027;50.786;7.058;2023-03-18T00:52:41;100503.81;;;10.61;97.62
67109;BME280;54027;50.786;7.058;2023-03-18T00:55:08;100496.94;;;10.61;98.72
67109;BME280;54027;50.786;7.058;2023-03-18T00:57:35;100490.03;;;10.60;98.41
67109;BME280;54027;50.786;7.058;2023-03-18T01:00:01;100495.22;;;10.62;98.14
67109;BME280;54027;50.786;7.058;2023-03-18T01:02:27;100483.97;;;10.64;98.21
67109;BME280;54027;50.786;7.058;2023-03-18T01:04:54;100472.78;;;10.64;98.22
67109;BME280;54027;50.786;7.058;2023-03-18T01:07:21;100476.22;;;10.64;98.06
67109;BME280;54027;50.786;7.058;2023-03-18T01:09:47;100487.41;;;10.63;98.52
67109;BME280;54027;50.786;7.058;2023-03-18T01:12:13;100477.94;;;10.64;99.13
67109;BME280;54027;50.786;7.058;2023-03-18T01:14:39;100459.00;;;10.63;98.69
67109;BME280;54027;50.786;7.058;2023-03-18T01:17:06;100461.63;;;10.60;98.47
67109;BME280;54027;50.786;7.058;2023-03-18T01:19:32;100480.59;;;10.59;98.58
67109;BME280;54027;50.786;7.058;2023-03-18T01:21:58;100480.66;;;10.55;98.52
67109;BME280;54027;50.786;7.058;2023-03-18T01:24:23;100474.66;;;10.53;99.50
67109;BME280;54027;50.786;7.058;2023-03-18T01:26:49;100470.34;;;10.52;99.19
67109;BME280;54027;50.786;7.058;2023-03-18T01:29:15;100471.22;;;10.51;99.12
67109;BME280;54027;50.786;7.058;2023-03-18T01:31:40;100464.34;;;10.50;99.14
67109;BME280;54027;50.786;7.058;2023-03-18T01:34:06;100466.94;;;10.50;99.44
67109;BME280;54027;50.786;7.058;2023-03-18T01:36:31;100467.81;;;10.49;99.56
67109;BME280;54027;50.786;7.058;2023-03-18T01:38:57;100466.97;;;10.47;99.22
67109;BME280;54027;50.786;7.058;2023-03-18T01:41:24;100459.25;;;10.42;99.24
67109;BME280;54027;50.786;7.058;2023-03-18T01:43:50;100456.72;;;10.41;99.42
67109;BME280;54027;50.786;7.058;2023-03-18T01:48:55;100449.81;;;10.41;99.79
67109;BME280;54027;50.786;7.058;2023-03-18T01:51:22;100448.06;;;10.42;98.87
67109;BME280;54027;50.786;7.058;2023-03-18T01:53:51;100447.25;;;10.41;99.48
67109;BME280;54027;50.786;7.058;2023-03-18T01:56:19;100454.09;;;10.42;99.39
67109;BME280;54027;50.786;7.058;2023-03-18T01:58:46;100453.19;;;10.45;99.05
67109;BME280;54027;50.786;7.058;2023-03-18T02:01:20;100451.50;;;10.42;98.63
67109;BME280;54027;50.786;7.058;2023-03-18T02:03:47;100449.81;;;10.41;98.66
67109;BME280;54027;50.786;7.058;2023-03-18T02:06:14;100436.88;;;10.44;98.13
67109;BME280;54027;50.786;7.058;2023-03-18T02:08:40;100440.31;;;10.43;97.88
67109;BME280;54027;50.786;7.058;2023-03-18T02:11:07;100430.88;;;10.39;97.94
67109;BME280;54027;50.786;7.058;2023-03-18T02:13:38;100440.41;;;10.36;97.75
67109;BME280;54027;50.786;7.058;2023-03-18T02:16:08;100441.28;;;10.33;98.16
67109;BME280;54027;50.786;7.058;2023-03-18T02:18:37;100437.06;;;10.29;98.92
67109;BME280;54027;50.786;7.058;2023-03-18T02:24:32;100440.59;;;10.22;99.25
67109;BME280;54027;50.786;7.058;2023-03-18T02:27:19;100436.25;;;10.24;99.32
67109;BME280;54027;50.786;7.058;2023-03-18T02:29:45;100436.25;;;10.26;99.32
67109;BME280;54027;50.786;7.058;2023-03-18T02:32:13;100431.94;;;10.24;99.43
67109;BME280;54027;50.786;7.058;2023-03-18T02:34:41;100429.34;;;10.24;98.84
67109;BME280;54027;50.786;7.058;2023-03-18T02:37:07;100431.97;;;10.23;99.18
67109;BME280;54027;50.786;7.058;2023-03-18T02:39:32;100438.03;;;10.20;99.45
67109;BME280;54027;50.786;7.058;2023-03-18T02:41:58;100436.28;;;10.21;99.31
67109;BME280;54027;50.786;7.058;2023-03-18T02:44:24;100430.22;;;10.27;98.96
67109;BME280;54027;50.786;7.058;2023-03-18T02:47:06;100436.31;;;10.19;99.41
67109;BME280;54027;50.786;7.058;2023-03-18T02:49:35;100429.38;;;10.21;98.76
67109;BME280;54027;50.786;7.058;2023-03-18T02:52:00;100436.34;;;10.16;99.06
67109;BME280;54027;50.786;7.058;2023-03-18T02:54:28;100434.63;;;10.17;98.76
67109;BME280;54027;50.786;7.058;2023-03-18T02:56:54;100431.28;;;10.07;98.72
67109;BME280;54027;50.786;7.058;2023-03-18T02:59:21;100437.38;;;10.00;99.17
67109;BME280;54027;50.786;7.058;2023-03-18T03:01:49;100431.44;;;9.95;99.40
67109;BME280;54027;50.786;7.058;2023-03-18T03:04:16;100442.66;;;9.91;99.80
67109;BME280;54027;50.786;7.058;2023-03-18T03:06:42;100436.69;;;9.88;100.00
67109;BME280;54027;50.786;7.058;2023-03-18T03:09:10;100444.47;;;9.85;100.00
67109;BME280;54027;50.786;7.058;2023-03-18T03:11:38;100449.69;;;9.77;100.00
67109;BME280;54027;50.786;7.058;2023-03-18T03:14:03;100448.03;;;9.72;100.00
67109;BME280;54027;50.786;7.058;2023-03-18T03:16:29;100456.69;;;9.66;100.00
67109;BME280;54027;50.786;7.058;2023-03-18T03:18:56;100457.56;;;9.62;100.00
67109;BME280;54027;50.786;7.058;2023-03-18T03:21:21;100468.75;;;9.62;100.00
67109;BME280;54027;50.786;7.058;2023-03-18T03:23:47;100465.34;;;9.59;100.00
67109;BME280;54027;50.786;7.058;2023-03-18T03:26:14;100464.50;;;9.54;100.00
67109;BME280;54027;50.786;7.058;2023-03-18T03:28:39;100462.84;;;9.48;100.00
67109;BME280;54027;50.786;7.058;2023-03-18T03:31:05;100467.19;;;9.43;100.00
67109;BME280;54027;50.786;7.058;2023-03-18T03:33:31;100468.88;;;9.44;100.00
67109;BME280;54027;50.786;7.058;2023-03-18T03:35:57;100468.91;;;9.41;100.00
67109;BME280;54027;50.786;7.058;2023-03-18T03:38:23;100470.56;;;9.51;100.00
67109;BME280;54027;50.786;7.058;2023-03-18T03:40:49;100465.34;;;9.56;100.00
67109;BME280;54027;50.786;7.058;2023-03-18T03:43:15;100473.06;;;9.63;100.00
67109;BME280;54027;50.786;7.058;2023-03-18T03:45:41;100472.19;;;9.63;100.00
67109;BME280;54027;50.786;7.058;2023-03-18T03:48:08;100473.00;;;9.68;100.00
67109;BME280;54027;50.786;7.058;2023-03-18T03:50:34;100479.84;;;9.71;100.00
67109;BME280;54027;50.786;7.058;2023-03-18T03:53:01;100487.53;;;9.77;100.00
67109;BME280;54027;50.786;7.058;2023-03-18T03:55:27;100488.41;;;9.79;100.00
67109;BME280;54027;50.786;7.058;2023-03-18T03:57:52;100494.44;;;9.79;100.00
67109;BME280;54027;50.786;7.058;2023-03-18T04:00:20;100487.59;;;9.72;100.00
67109;BME280;54027;50.786;7.058;2023-03-18T04:02:47;100494.56;;;9.64;100.00
67109;BME280;54027;50.786;7.058;2023-03-18T04:05:14;100504.03;;;9.63;100.00
67109;BME280;54027;50.786;7.058;2023-03-18T04:07:41;100505.78;;;9.58;100.00
67109;BME280;54027;50.786;7.058;2023-03-18T04:10:07;100504.88;;;9.62;100.00
67109;BME280;54027;50.786;7.058;2023-03-18T04:12:34;100513.47;;;9.66;100.00
67109;BME280;54027;50.786;7.058;2023-03-18T04:15:00;100513.44;;;9.67;100.00
67109;BME280;54027;50.786;7.058;2023-03-18T04:17:25;100518.53;;;9.74;99.25
67109;BME280;54027;50.786;7.058;2023-03-18T04:19:51;100525.47;;;9.73;99.95
67109;BME280;54027;50.786;7.058;2023-03-18T04:22:16;100528.91;;;9.71;100.00
67109;BME280;54027;50.786;7.058;2023-03-18T04:24:42;100534.94;;;9.70;100.00
67109;BME280;54027;50.786;7.058;2023-03-18T04:27:09;100529.78;;;9.68;99.78
67109;BME280;54027;50.786;7.058;2023-03-18T04:29:35;100531.53;;;9.66;99.64
67109;BME280;54027;50.786;7.058;2023-03-18T04:32:04;100533.22;;;9.70;99.24
67109;BME280;54027;50.786;7.058;2023-03-18T04:34:29;100546.16;;;9.67;99.94
67109;BME280;54027;50.786;7.058;2023-03-18T04:36:56;100543.44;;;9.82;98.89
67109;BME280;54027;50.786;7.058;2023-03-18T04:39:22;100541.66;;;9.86;98.67
67109;BME280;54027;50.786;7.058;2023-03-18T04:41:47;100541.69;;;9.84;98.35
67109;BME280;54027;50.786;7.058;2023-03-18T04:44:13;100548.59;;;9.81;98.95
67109;BME280;54027;50.786;7.058;2023-03-18T04:46:38;100556.31;;;9.84;97.98
67109;BME280;54027;50.786;7.058;2023-03-18T04:49:04;100551.09;;;9.88;97.68
67109;BME280;54027;50.786;7.058;2023-03-18T04:51:30;100547.72;;;9.83;98.13
67109;BME280;54027;50.786;7.058;2023-03-18T04:53:55;100555.50;;;9.77;97.43
67109;BME280;54027;50.786;7.058;2023-03-18T04:56:21;100557.19;;;9.83;97.75
67109;BME280;54027;50.786;7.058;2023-03-18T04:58:46;100554.59;;;9.83;97.61
67109;BME280;54027;50.786;7.058;2023-03-18T05:01:12;100552.09;;;9.75;98.49
67109;BME280;54027;50.786;7.058;2023-03-18T05:03:39;100551.25;;;9.75;97.31
67109;BME280;54027;50.786;7.058;2023-03-18T05:06:04;100556.44;;;9.68;98.09
67109;BME280;54027;50.786;7.058;2023-03-18T05:08:30;100557.34;;;9.66;98.22
67109;BME280;54027;50.786;7.058;2023-03-18T05:10:55;100559.06;;;9.65;98.05
67109;BME280;54027;50.786;7.058;2023-03-18T05:13:21;100559.06;;;9.67;96.91
67109;BME280;54027;50.786;7.058;2023-03-18T05:15:46;100557.31;;;9.67;97.59
67109;BME280;54027;50.786;7.058;2023-03-18T05:18:12;100556.50;;;9.62;97.39
67109;BME280;54027;50.786;7.058;2023-03-18T05:20:38;100553.88;;;9.70;97.77
67109;BME280;54027;50.786;7.058;2023-03-18T05:23:04;100559.03;;;9.68;97.04
67109;BME280;54027;50.786;7.058;2023-03-18T05:25:30;100565.91;;;9.68;96.52
67109;BME280;54027;50.786;7.058;2023-03-18T05:27:55;100565.06;;;9.66;97.40
67109;BME280;54027;50.786;7.058;2023-03-18T05:30:21;100562.44;;;9.71;96.18
67109;BME280;54027;50.786;7.058;2023-03-18T05:32:47;100567.66;;;9.66;96.60
67109;BME280;54027;50.786;7.058;2023-03-18T05:35:13;100561.63;;;9.67;96.53
67109;BME280;54027;50.786;7.058;2023-03-18T05:37:38;100563.34;;;9.68;96.27
67109;BME280;54027;50.786;7.058;2023-03-18T05:40:04;100561.66;;;9.64;95.67
67109;BME280;54027;50.786;7.058;2023-03-18T05:42:34;100565.97;;;9.62;95.13
67109;BME280;54027;50.786;7.058;2023-03-18T05:45:00;100569.44;;;9.53;95.94
67109;BME280;54027;50.786;7.058;2023-03-18T05:47:26;100568.56;;;9.59;96.32
67109;BME280;54027;50.786;7.058;2023-03-18T05:49:52;100566.88;;;9.52;95.92
67109;BME280;54027;50.786;7.058;2023-03-18T05:52:17;100566.00;;;9.53;96.67
67109;BME280;54027;50.786;7.058;2023-03-18T05:54:42;100566.84;;;9.56;96.10
67109;BME280;54027;50.786;7.058;2023-03-18T05:57:08;100570.28;;;9.60;96.48
67109;BME280;54027;50.786;7.058;2023-03-18T05:59:34;100575.44;;;9.58;95.27
67109;BME280;54027;50.786;7.058;2023-03-18T06:02:00;100570.28;;;9.60;95.79
67109;BME280;54027;50.786;7.058;2023-03-18T06:04:25;100584.03;;;9.59;95.21
67109;BME280;54027;50.786;7.058;2023-03-18T06:06:52;100574.53;;;9.65;94.85
67109;BME280;54027;50.786;7.058;2023-03-18T06:09:17;100568.50;;;9.70;94.84
67109;BME280;54027;50.786;7.058;2023-03-18T06:11:43;100579.63;;;9.76;94.92
67109;BME280;54027;50.786;7.058;2023-03-18T06:14:10;100582.22;;;9.75;94.35
67109;BME280;54027;50.786;7.058;2023-03-18T06:16:36;100583.06;;;9.74;94.28
67109;BME280;54027;50.786;7.058;2023-03-18T06:19:02;100586.53;;;9.73;94.22
67109;BME280;54027;50.786;7.058;2023-03-18T06:21:28;100582.25;;;9.73;93.61
67109;BME280;54027;50.786;7.058;2023-03-18T06:23:55;100584.81;;;9.73;93.82
67109;BME280;54027;50.786;7.058;2023-03-18T06:26:21;100583.94;;;9.74;94.19
67109;BME280;54027;50.786;7.058;2023-03-18T06:28:47;100591.69;;;9.71;94.45
67109;BME280;54027;50.786;7.058;2023-03-18T06:31:12;100590.81;;;9.74;93.58
67109;BME280;54027;50.786;7.058;2023-03-18T06:33:38;100592.53;;;9.75;94.53
67109;BME280;54027;50.786;7.058;2023-03-18T06:36:04;100594.25;;;9.76;94.17
67109;BME280;54027;50.786;7.058;2023-03-18T06:38:30;100589.09;;;9.76;94.07
67109;BME280;54027;50.786;7.058;2023-03-18T06:40:56;100601.06;;;9.84;93.45
67109;BME280;54027;50.786;7.058;2023-03-18T06:43:22;100600.22;;;9.84;93.43
67109;BME280;54027;50.786;7.058;2023-03-18T06:45:47;100593.28;;;9.90;93.10
67109;BME280;54027;50.786;7.058;2023-03-18T06:48:13;100598.34;;;9.98;93.12
67109;BME280;54027;50.786;7.058;2023-03-18T06:50:39;100595.75;;;10.02;92.44
67109;BME280;54027;50.786;7.058;2023-03-18T06:53:06;100588.84;;;10.06;93.51
67109;BME280;54027;50.786;7.058;2023-03-18T06:55:32;100601.66;;;10.13;92.74
67109;BME280;54027;50.786;7.058;2023-03-18T06:57:58;100598.13;;;10.25;91.80
67109;BME280;54027;50.786;7.058;2023-03-18T07:00:24;100600.56;;;10.36;91.60
67109;BME280;54027;50.786;7.058;2023-03-18T07:02:50;100604.78;;;10.47;91.35
67109;BME280;54027;50.786;7.058;2023-03-18T07:05:16;100600.31;;;10.60;90.38
67109;BME280;54027;50.786;7.058;2023-03-18T07:07:41;100599.31;;;10.71;89.56
67109;BME280;54027;50.786;7.058;2023-03-18T07:10:14;100595.72;;;10.85;89.18
67109;BME280;54027;50.786;7.058;2023-03-18T07:12:41;100597.34;;;10.93;88.62
67109;BME280;54027;50.786;7.058;2023-03-18T07:15:07;100600.69;;;11.03;88.11
67109;BME280;54027;50.786;7.058;2023-03-18T07:17:33;100607.41;;;11.14;87.56
67109;BME280;54027;50.786;7.058;2023-03-18T07:19:58;100608.19;;;11.19;86.85
67109;BME280;54027;50.786;7.058;2023-03-18T07:22:23;100608.97;;;11.26;87.05
67109;BME280;54027;50.786;7.058;2023-03-18T07:24:49;100606.19;;;11.40;85.92
67109;BME280;54027;50.786;7.058;2023-03-18T07:27:15;100607.91;;;11.42;86.00
67109;BME280;54027;50.786;7.058;2023-03-18T07:29:41;100619.97;;;11.45;85.73
67109;BME280;54027;50.786;7.058;2023-03-18T07:32:06;100620.72;;;11.53;85.41
67109;BME280;54027;50.786;7.058;2023-03-18T07:34:32;100616.31;;;11.58;84.98
67109;BME280;54027;50.786;7.058;2023-03-18T07:36:58;100628.34;;;11.62;85.01
67109;BME280;54027;50.786;7.058;2023-03-18T07:39:23;100617.03;;;11.67;84.61
67109;BME280;54027;50.786;7.058;2023-03-18T07:41:49;100620.34;;;11.77;83.91
67109;BME280;54027;50.786;7.058;2023-03-18T07:44:15;100628.88;;;11.82;84.58
67109;BME280;54027;50.786;7.058;2023-03-18T07:46:41;100626.00;;;12.00;82.56
67109;BME280;54027;50.786;7.058;2023-03-18T07:49:06;100630.13;;;12.13;82.43
67109;BME280;54027;50.786;7.058;2023-03-18T07:51:32;100628.19;;;12.23;82.09
67109;BME280;54027;50.786;7.058;2023-03-18T07:53:57;100621.97;;;12.34;81.28
67109;BME280;54027;50.786;7.058;2023-03-18T07:56:23;100631.28;;;12.46;80.87
67109;BME280;54027;50.786;7.058;2023-03-18T07:58:49;100631.94;;;12.56;80.35
67109;BME280;54027;50.786;7.058;2023-03-18T08:01:15;100626.69;;;12.60;79.58
67109;BME280;54027;50.786;7.058;2023-03-18T08:03:42;100633.44;;;12.67;79.77
67109;BME280;54027;50.786;7.058;2023-03-18T08:06:09;100628.19;;;12.72;79.47
67109;BME280;54027;50.786;7.058;2023-03-18T08:08:36;100627.31;;;12.73;78.98
67109;BME280;54027;50.786;7.058;2023-03-18T08:11:01;100636.75;;;12.75;79.54
67109;BME280;54027;50.786;7.058;2023-03-18T08:13:27;100633.16;;;12.82;79.05
67109;BME280;54027;50.786;7.058;2023-03-18T08:15:53;100632.22;;;12.86;78.62
67109;BME280;54027;50.786;7.058;2023-03-18T08:18:20;100637.38;;;12.88;78.45
67109;BME280;54027;50.786;7.058;2023-03-18T08:20:46;100634.81;;;12.86;78.60
67109;BME280;54027;50.786;7.058;2023-03-18T08:23:12;100640.78;;;12.90;78.22
67109;BME280;54027;50.786;7.058;2023-03-18T08:25:39;100643.28;;;12.94;77.69
67109;BME280;54027;50.786;7.058;2023-03-18T08:28:04;100643.22;;;12.97;77.83
67109;BME280;54027;50.786;7.058;2023-03-18T08:30:32;100647.34;;;13.09;78.01
67109;BME280;54027;50.786;7.058;2023-03-18T08:32:58;100650.66;;;13.17;77.86
67109;BME280;54027;50.786;7.058;2023-03-18T08:35:24;100653.88;;;13.28;77.10
67109;BME280;54027;50.786;7.058;2023-03-18T08:37:49;100656.28;;;13.36;77.08
67109;BME280;54027;50.786;7.058;2023-03-18T08:40:16;100655.41;;;13.38;77.01
67109;BME280;54027;50.786;7.058;2023-03-18T08:42:42;100649.97;;;13.49;75.69
67109;BME280;54027;50.786;7.058;2023-03-18T08:45:08;100649.06;;;13.50;75.38
67109;BME280;54027;50.786;7.058;2023-03-18T08:47:33;100641.97;;;13.56;75.38
67109;BME280;54027;50.786;7.058;2023-03-18T08:49:59;100646.22;;;13.62;75.64
67109;BME280;54027;50.786;7.058;2023-03-18T08:52:24;100634.84;;;13.66;74.70
67109;BME280;54027;50.786;7.058;2023-03-18T08:54:49;100634.69;;;13.74;74.98
67109;BME280;54027;50.786;7.058;2023-03-18T08:57:15;100627.56;;;13.82;74.48
67109;BME280;54027;50.786;7.058;2023-03-18T08:59:40;100636.00;;;13.90;73.80
67109;BME280;54027;50.786;7.058;2023-03-18T09:02:06;100636.59;;;14.01;73.58
67109;BME280;54027;50.786;7.058;2023-03-18T09:04:32;100631.16;;;14.11;73.14
67109;BME280;54027;50.786;7.058;2023-03-18T09:06:57;100622.25;;;14.20;72.24
67109;BME280;54027;50.786;7.058;2023-03-18T09:09:24;100623.59;;;14.36;72.25
67109;BME280;54027;50.786;7.058;2023-03-18T09:11:50;100623.19;;;14.51;71.55
67109;BME280;54027;50.786;7.058;2023-03-18T09:14:15;100618.41;;;14.69;71.07
67109;BME280;54027;50.786;7.058;2023-03-18T09:16:41;100612.56;;;14.91;70.55
67109;BME280;54027;50.786;7.058;2023-03-18T09:19:06;100602.56;;;15.07;69.94
67109;BME280;54027;50.786;7.058;2023-03-18T09:21:32;100585.66;;;15.20;68.64
67109;BME280;54027;50.786;7.058;2023-03-18T09:23:57;100583.59;;;15.31;68.19
67109;BME280;54027;50.786;7.058;2023-03-18T09:26:23;100586.81;;;15.39;67.57
67109;BME280;54027;50.786;7.058;2023-03-18T09:28:48;100587.25;;;15.53;67.18
67109;BME280;54027;50.786;7.058;2023-03-18T09:31:14;100581.03;;;15.57;67.01
67109;BME280;54027;50.786;7.058;2023-03-18T09:33:40;100555.75;;;15.61;65.93
67109;BME280;54027;50.786;7.058;2023-03-18T09:36:07;100568.66;;;15.65;66.00
67109;BME280;54027;50.786;7.058;2023-03-18T09:38:33;100546.84;;;15.68;65.18
67109;BME280;54027;50.786;7.058;2023-03-18T09:43:56;100546.75;;;15.71;64.88
67109;BME280;54027;50.786;7.058;2023-03-18T09:46:45;100543.25;;;15.72;64.22
67109;BME280;54027;50.786;7.058;2023-03-18T09:55:03;100554.13;;;15.85;64.85
67109;BME280;54027;50.786;7.058;2023-03-18T09:57:33;100534.66;;;15.95;63.99
67109;BME280;54027;50.786;7.058;2023-03-18T10:00:23;100507.63;;;15.97;62.75
67109;BME280;54027;50.786;7.058;2023-03-18T10:02:57;100496.94;;;16.05;62.43
67109;BME280;54027;50.786;7.058;2023-03-18T10:05:32;100516.53;;;16.16;63.38
67109;BME280;54027;50.786;7.058;2023-03-18T10:08:39;100532.97;;;16.18;63.97
67109;BME280;54027;50.786;7.058;2023-03-18T10:11:01;100508.63;;;16.18;63.14
67109;BME280;54027;50.786;7.058;2023-03-18T10:13:32;100498.94;;;16.21;62.73
67109;BME280;54027;50.786;7.058;2023-03-18T10:16:03;100503.06;;;16.28;62.50
67109;BME280;54027;50.786;7.058;2023-03-18T10:18:34;100512.44;;;16.32;62.94
67109;BME280;54027;50.786;7.058;2023-03-18T10:23:55;100498.25;;;16.41;62.56
67109;BME280;54027;50.786;7.058;2023-03-18T10:40:19;100502.09;;;16.54;61.13
67109;BME280;54027;50.786;7.058;2023-03-18T10:42:46;100484.16;;;16.68;60.34
67109;BME280;54027;50.786;7.058;2023-03-18T10:45:21;100460.19;;;16.82;58.52
67109;BME280;54027;50.786;7.058;2023-03-18T10:47:55;100460.97;;;16.84;58.81
67109;BME280;54027;50.786;7.058;2023-03-18T10:53:09;100451.31;;;16.86;58.41
67109;BME280;54027;50.786;7.058;2023-03-18T10:56:26;100455.47;;;16.92;58.37
67109;BME280;54027;50.786;7.058;2023-03-18T10:58:27;100446.28;;;17.03;58.03
67109;BME280;54027;50.786;7.058;2023-03-18T11:00:53;100466.09;;;17.09;58.47
67109;BME280;54027;50.786;7.058;2023-03-18T11:03:21;100452.66;;;17.18;57.55
67109;BME280;54027;50.786;7.058;2023-03-18T11:05:49;100423.19;;;17.14;56.26
67109;BME280;54027;50.786;7.058;2023-03-18T11:08:36;100423.97;;;17.16;55.83
67109;BME280;54027;50.786;7.058;2023-03-18T11:13:51;100443.34;;;17.32;56.83
67109;BME280;54027;50.786;7.058;2023-03-18T11:16:23;100467.34;;;17.42;57.84
67109;BME280;54027;50.786;7.058;2023-03-18T11:18:54;100429.97;;;17.40;56.43
67109;BME280;54027;50.786;7.058;2023-03-18T11:21:19;100445.75;;;17.37;56.46
67109;BME280;54027;50.786;7.058;2023-03-18T11:23:56;100464.06;;;17.37;57.55
67109;BME280;54027;50.786;7.058;2023-03-18T11:26:55;100443.88;;;17.40;56.55
67109;BME280;54027;50.786;7.058;2023-03-18T11:29:25;100430.38;;;17.51;56.15
67109;BME280;54027;50.786;7.058;2023-03-18T11:31:55;100427.22;;;17.63;55.54
67109;BME280;54027;50.786;7.058;2023-03-18T11:34:27;100423.81;;;17.81;55.69
67109;BME280;54027;50.786;7.058;2023-03-18T11:37:03;100417.28;;;18.12;55.08
67109;BME280;54027;50.786;7.058;2023-03-18T11:39:31;100396.94;;;18.37;53.94
67109;BME280;54027;50.786;7.058;2023-03-18T11:41:59;100364.97;;;18.49;52.60
67109;BME280;54027;50.786;7.058;2023-03-18T11:44:31;100358.81;;;18.50;52.04
67109;BME280;54027;50.786;7.058;2023-03-18T11:47:04;100366.34;;;18.75;52.44
67109;BME280;54027;50.786;7.058;2023-03-18T11:49:30;100357.00;;;18.88;51.90
67109;BME280;54027;50.786;7.058;2023-03-18T11:52:09;100372.97;;;19.00;52.55
67109;BME280;54027;50.786;7.058;2023-03-18T11:57:12;100364.59;;;19.28;51.92
67109;BME280;54027;50.786;7.058;2023-03-18T12:10:46;100378.00;;;19.22;52.13
67109;BME280;54027;50.786;7.058;2023-03-18T12:13:34;100349.31;;;19.36;50.97
67109;BME280;54027;50.786;7.058;2023-03-18T12:27:11;100303.28;;;19.48;49.04
67109;BME280;54027;50.786;7.058;2023-03-18T12:32:25;100326.19;;;19.77;49.30
67109;BME280;54027;50.786;7.058;2023-03-18T12:43:42;100314.31;;;19.87;48.96
67109;BME280;54027;50.786;7.058;2023-03-18T12:48:57;100324.66;;;19.90;49.29
67109;BME280;54027;50.786;7.058;2023-03-18T12:51:28;100310.09;;;19.85;49.13
67109;BME280;54027;50.786;7.058;2023-03-18T12:54:06;100313.03;;;19.79;49.41
67109;BME280;54027;50.786;7.058;2023-03-18T12:56:40;100300.53;;;19.67;48.71
67109;BME280;54027;50.786;7.058;2023-03-18T12:59:14;100320.16;;;19.42;49.17
67109;BME280;54027;50.786;7.058;2023-03-18T13:01:56;100331.22;;;19.32;49.96
67109;BME280;54027;50.786;7.058;2023-03-18T13:04:29;100362.47;;;19.00;51.03
67109;BME280;54027;50.786;7.058;2023-03-18T13:07:11;100378.16;;;18.83;52.52
67109;BME280;54027;50.786;7.058;2023-03-18T13:09:52;100395.50;;;18.67;52.49
67109;BME280;54027;50.786;7.058;2023-03-18T13:12:37;100385.13;;;18.47;52.23
67109;BME280;54027;50.786;7.058;2023-03-18T13:17:41;100426.28;;;18.25;54.34
67109;BME280;54027;50.786;7.058;2023-03-18T13:44:23;100530.09;;;16.74;61.71
67109;BME280;54027;50.786;7.058;2023-03-18T13:46:56;100549.50;;;16.65;63.28
67109;BME280;54027;50.786;7.058;2023-03-18T13:49:27;100557.56;;;16.59;63.62
67109;BME280;54027;50.786;7.058;2023-03-18T13:51:58;100563.94;;;16.52;64.19
67109;BME280;54027;50.786;7.058;2023-03-18T13:54:33;100579.00;;;16.44;64.75
67109;BME280;54027;50.786;7.058;2023-03-18T13:57:16;100571.22;;;16.43;65.19
67109;BME280;54027;50.786;7.058;2023-03-18T13:59:45;100570.53;;;16.38;64.69
67109;BME280;54027;50.786;7.058;2023-03-18T14:02:40;100574.94;;;16.36;65.46
67109;BME280;54027;50.786;7.058;2023-03-18T14:07:55;100590.00;;;15.49;76.63
67109;BME280;54027;50.786;7.058;2023-03-18T14:10:21;100595.78;;;15.31;79.10
67109;BME280;54027;50.786;7.058;2023-03-18T14:12:47;100594.34;;;15.20;79.44
67109;BME280;54027;50.786;7.058;2023-03-18T14:15:36;100592.81;;;15.13;81.30
67109;BME280;54027;50.786;7.058;2023-03-18T14:18:02;100580.00;;;15.07;81.33
67109;BME280;54027;50.786;7.058;2023-03-18T14:20:39;100586.09;;;15.06;80.44
67109;BME280;54027;50.786;7.058;2023-03-18T14:23:40;100579.16;;;15.05;80.47
67109;BME280;54027;50.786;7.058;2023-03-18T14:26:23;100577.31;;;15.10;80.44
67109;BME280;54027;50.786;7.058;2023-03-18T14:31:25;100561.25;;;15.24;79.10
67109;BME280;54027;50.786;7.058;2023-03-18T14:34:01;100571.31;;;15.35;78.64
67109;BME280;54027;50.786;7.058;2023-03-18T14:39:44;100563.03;;;15.50;77.19
67109;BME280;54027;50.786;7.058;2023-03-18T14:45:27;100538.50;;;15.85;75.47
67109;BME280;54027;50.786;7.058;2023-03-18T14:48:02;100535.09;;;16.07;74.47
67109;BME280;54027;50.786;7.058;2023-03-18T14:50:41;100548.03;;;16.35;74.98
67109;BME280;54027;50.786;7.058;2023-03-18T14:55:58;100477.91;;;16.96;68.82